Time;durP1;ratioP1;P1;durP2;ratioP2;P2;SDS_P1;SDS_P2;PMS_P1;PMS_P2;Temp;Humidity;BMP_temperature;BMP_pressure;BME280_temperature;BME280_humidity;BME280_pressure;Samples;Min_cycle;Max_cycle;Signal;HPM_P1;HPM_P2
2022/11/25 10:01:16;;;;;;;12.15;3.38;;;;;;;6.49;81.65;96617.28;2123231;27;20562;-68
2022/11/25 10:02:29;;;;;;;7.70;2.15;;;;;;;6.63;81.39;96622.06;2106103;28;20306;-69
2022/11/25 10:04:01;;;;;;;12.88;3.75;;;;;;;6.98;80.35;96616.72;2110404;27;20226;-69
2022/11/25 10:05:14;;;;;;;6.35;2.78;;;;;;;7.69;78.81;96614.44;2095034;28;20219;-70
2022/11/25 10:06:23;;;;;;;8.98;2.80;;;;;;;8.37;76.67;96622.50;2097106;28;20293;-69
2022/11/25 10:07:39;;;;;;;6.15;2.33;;;;;;;8.80;74.31;96620.94;2096378;28;20283;-69
2022/11/25 10:08:45;;;;;;;6.05;3.15;;;;;;;9.42;72.39;96610.72;2096136;28;20207;-70
2022/11/25 10:09:46;;;;;;;9.10;3.05;;;;;;;9.37;71.44;96617.88;2095059;28;20274;-69
2022/11/25 10:11:23;;;;;;;5.97;2.50;;;;;;;9.42;70.81;96622.88;2095122;28;20272;-69
2022/11/25 10:12:29;;;;;;;11.15;2.30;;;;;;;9.24;70.97;96622.72;2097327;28;20278;-70
2022/11/25 10:13:57;;;;;;;5.60;2.42;;;;;;;8.91;71.93;96614.47;2097601;28;20242;-67
2022/11/25 10:15:13;;;;;;;9.00;2.50;;;;;;;8.50;73.16;96610.75;2094934;28;20315;-67
2022/11/25 10:16:29;;;;;;;9.95;2.90;;;;;;;8.00;74.24;96616.00;2094579;28;20204;-67
2022/11/25 10:17:50;;;;;;;5.55;2.22;;;;;;;7.84;76.02;96626.06;2096770;28;20200;-68
2022/11/25 10:18:59;;;;;;;6.07;2.60;;;;;;;7.65;76.98;96625.84;2095732;28;20267;-67
2022/11/25 10:20:07;;;;;;;8.40;2.85;;;;;;;7.57;78.63;96630.44;2102212;28;20306;-67
2022/11/25 10:21:10;;;;;;;9.35;3.45;;;;;;;7.30;78.97;96623.50;2103609;28;20662;-67
2022/11/25 10:22:32;;;;;;;7.15;3.55;;;;;;;7.34;79.41;96625.09;2096701;28;20197;-67
2022/11/25 10:23:35;;;;;;;9.88;4.03;;;;;;;7.36;79.91;96630.22;2095169;28;20624;-67
2022/11/25 10:24:36;;;;;;;19.13;4.90;;;;;;;7.30;79.52;96627.81;2094014;28;20223;-67
2022/11/25 10:25:45;;;;;;;11.48;3.33;;;;;;;7.27;79.31;96622.75;2093725;28;20209;-67
2022/11/25 10:27:00;;;;;;;9.38;3.25;;;;;;;7.13;79.64;96618.81;2094686;28;20746;-67
2022/11/25 13:34:18;;;;;;;19.30;3.75;;;;;;;7.58;86.06;96820.13;2103685;27;20572;-70
2022/11/25 13:35:27;;;;;;;5.20;2.50;;;;;;;7.90;84.71;96815.69;2088635;28;20498;-70
2022/11/25 13:36:45;;;;;;;5.07;2.00;;;;;;;8.06;83.59;96825.59;2072673;28;20724;-70
2022/11/25 13:37:48;;;;;;;12.57;2.30;;;;;;;8.11;83.58;96819.34;2073671;28;20206;-70
2022/11/25 13:38:49;;;;;;;8.07;1.98;;;;;;;8.15;81.67;96820.09;2075255;28;20206;-69
2022/11/25 13:40:20;;;;;;;9.85;2.40;;;;;;;7.84;82.25;96784.66;2075107;28;20783;-70
2022/11/25 13:41:31;;;;;;;12.20;2.20;;;;;;;8.18;82.77;96820.00;2081434;28;20509;-70
2022/11/25 13:42:32;;;;;;;6.47;2.00;;;;;;;7.93;81.77;96805.16;2079015;28;20195;-70
2022/11/25 13:43:34;;;;;;;11.85;1.95;;;;;;;7.91;82.09;96817.38;2074243;28;20207;-70
2022/11/25 13:44:52;;;;;;;14.00;2.30;;;;;;;7.85;82.68;96809.78;2073789;28;20476;-70
2022/11/25 13:45:54;;;;;;;16.15;2.50;;;;;;;7.80;82.27;96820.31;2075177;28;20201;-70
2022/11/25 13:46:58;;;;;;;13.00;2.40;;;;;;;7.77;82.60;96823.00;2070466;28;20207;-70
2022/11/25 13:48:14;;;;;;;6.10;1.65;;;;;;;7.77;82.77;96829.94;2071283;28;20201;-70
2022/11/25 13:49:37;;;;;;;6.78;2.47;;;;;;;7.74;82.71;96836.09;2073012;28;20196;-70
2022/11/25 13:50:42;;;;;;;15.05;2.40;;;;;;;7.56;82.39;96829.69;2070252;28;20202;-70
2022/11/25 13:52:09;;;;;;;7.88;2.20;;;;;;;7.45;82.02;96834.34;2074035;28;20229;-70
2022/11/25 13:53:30;;;;;;;12.50;2.38;;;;;;;7.38;82.48;96843.22;2074073;28;20287;-70
2022/11/25 13:54:38;;;;;;;7.65;2.05;;;;;;;7.30;83.17;96840.84;2074517;28;20232;-70
2022/11/25 15:40:28;;;;;;;14.88;4.25;;;;;;;6.35;85.92;96952.28;2082822;28;21118;-68
2022/11/25 15:41:35;;;;;;;8.00;3.20;;;;;;;6.30;85.85;96948.09;2070621;28;20201;-68
